sensor_id;sensor_type;location;lat;lon;timestamp;pressure;altitude;pressure_sealevel;temperature;humidity
18985;BME280;9626;52.552;13.436;2023-09-18T00:00:02;100702.03;;;20.30;100.00
18985;BME280;9626;52.552;13.436;2023-09-18T00:02:30;100696.00;;;20.26;100.00
18985;BME280;9626;52.552;13.436;2023-09-18T00:04:57;100691.66;;;20.23;100.00
18985;BME280;9626;52.552;13.436;2023-09-18T00:07:23;100688.38;;;20.18;100.00
18985;BME280;9626;52.552;13.436;2023-09-18T00:09:49;100693.84;;;20.17;100.00
18985;BME280;9626;52.552;13.436;2023-09-18T00:12:17;100690.47;;;20.13;100.00
18985;BME280;9626;52.552;13.436;2023-09-18T00:14:43;100685.28;;;20.10;100.00
18985;BME280;9626;52.552;13.436;2023-09-18T00:17:09;100686.31;;;20.07;100.00
18985;BME280;9626;52.552;13.436;2023-09-18T00:19:35;100691.00;;;20.04;100.00
18985;BME280;9626;52.552;13.436;2023-09-18T00:22:01;100681.16;;;20.04;100.00
18985;BME280;9626;52.552;13.436;2023-09-18T00:24:27;100687.56;;;20.02;100.00
18985;BME280;9626;52.552;13.436;2023-09-18T00:26:53;100682.53;;;19.96;100.00
18985;BME280;9626;52.552;13.436;2023-09-18T00:29:19;100673.88;;;19.90;100.00
18985;BME280;9626;52.552;13.436;2023-09-18T00:31:45;100673.13;;;19.88;100.00
18985;BME280;9626;52.552;13.436;2023-09-18T00:34:11;100670.63;;;19.85;100.00
18985;BME280;9626;52.552;13.436;2023-09-18T00:36:37;100669.84;;;19.83;100.00
18985;BME280;9626;52.552;13.436;2023-09-18T00:39:04;100677.88;;;19.83;100.00
18985;BME280;9626;52.552;13.436;2023-09-18T00:41:30;100669.06;;;19.81;100.00
18985;BME280;9626;52.552;13.436;2023-09-18T00:43:56;100667.34;;;19.80;100.00
18985;BME280;9626;52.552;13.436;2023-09-18T00:46:22;100667.34;;;19.80;100.00
18985;BME280;9626;52.552;13.436;2023-09-18T00:48:49;100661.06;;;19.80;100.00
18985;BME280;9626;52.552;13.436;2023-09-18T00:51:16;100656.03;;;19.73;100.00
18985;BME280;9626;52.552;13.436;2023-09-18T00:53:45;100651.91;;;19.68;100.00
18985;BME280;9626;52.552;13.436;2023-09-18T00:56:14;100656.66;;;19.63;100.00
18985;BME280;9626;52.552;13.436;2023-09-18T00:58:40;100652.53;;;19.57;100.00
18985;BME280;9626;52.552;13.436;2023-09-18T01:01:07;100646.47;;;19.53;100.00
18985;BME280;9626;52.552;13.436;2023-09-18T01:03:34;100651.22;;;19.48;100.00
18985;BME280;9626;52.552;13.436;2023-09-18T01:06:00;100652.09;;;19.49;100.00
18985;BME280;9626;52.552;13.436;2023-09-18T01:08:26;100651.16;;;19.50;100.00
18985;BME280;9626;52.552;13.436;2023-09-18T01:11:19;100651.31;;;19.47;100.00
18985;BME280;9626;52.552;13.436;2023-09-18T01:13:55;100650.56;;;19.45;100.00
18985;BME280;9626;52.552;13.436;2023-09-18T01:16:32;100640.84;;;19.42;100.00
18985;BME280;9626;52.552;13.436;2023-09-18T01:19:00;100641.81;;;19.41;100.00
18985;BME280;9626;52.552;13.436;2023-09-18T01:21:29;100642.94;;;19.37;100.00
18985;BME280;9626;52.552;13.436;2023-09-18T01:23:55;100637.94;;;19.31;100.00
18985;BME280;9626;52.552;13.436;2023-09-18T01:26:21;100634.63;;;19.25;100.00
18985;BME280;9626;52.552;13.436;2023-09-18T01:28:46;100634.44;;;19.29;100.00
18985;BME280;9626;52.552;13.436;2023-09-18T01:31:12;100641.56;;;19.30;100.00
18985;BME280;9626;52.552;13.436;2023-09-18T01:33:39;100632.72;;;19.28;100.00
18985;BME280;9626;52.552;13.436;2023-09-18T01:36:07;100634.63;;;19.25;100.00
18985;BME280;9626;52.552;13.436;2023-09-18T01:38:35;100633.84;;;19.23;100.00
18985;BME280;9626;52.552;13.436;2023-09-18T01:41:02;100631.34;;;19.20;100.00
18985;BME280;9626;52.552;13.436;2023-09-18T01:43:29;100628.66;;;19.20;100.00
18985;BME280;9626;52.552;13.436;2023-09-18T01:45:56;100625.28;;;19.17;100.00
18985;BME280;9626;52.552;13.436;2023-09-18T01:48:22;100621.81;;;19.15;100.00
18985;BME280;9626;52.552;13.436;2023-09-18T01:50:48;100617.50;;;19.12;100.00
18985;BME280;9626;52.552;13.436;2023-09-18T01:53:16;100626.66;;;19.08;100.00
18985;BME280;9626;52.552;13.436;2023-09-18T01:55:42;100629.44;;;19.06;100.00
18985;BME280;9626;52.552;13.436;2023-09-18T01:58:08;100632.22;;;19.05;100.00
18985;BME280;9626;52.552;13.436;2023-09-18T02:00:35;100630.66;;;19.01;100.00
18985;BME280;9626;52.552;13.436;2023-09-18T02:03:01;100620.06;;;18.98;100.00
18985;BME280;9626;52.552;13.436;2023-09-18T02:05:27;100609.34;;;18.98;100.00
18985;BME280;9626;52.552;13.436;2023-09-18T02:07:53;100606.84;;;18.95;100.00
18985;BME280;9626;52.552;13.436;2023-09-18T02:10:19;100592.56;;;18.94;100.00
18985;BME280;9626;52.552;13.436;2023-09-18T02:12:45;100590.94;;;18.91;100.00
18985;BME280;9626;52.552;13.436;2023-09-18T02:15:11;100582.22;;;18.86;100.00
18985;BME280;9626;52.552;13.436;2023-09-18T02:17:37;100577.72;;;18.87;100.00
18985;BME280;9626;52.552;13.436;2023-09-18T02:20:04;100567.09;;;18.85;100.00
18985;BME280;9626;52.552;13.436;2023-09-18T02:22:37;100567.25;;;18.82;100.00
18985;BME280;9626;52.552;13.436;2023-09-18T02:25:06;100569.31;;;18.77;100.00
18985;BME280;9626;52.552;13.436;2023-09-18T02:27:33;100565.09;;;18.73;100.00
18985;BME280;9626;52.552;13.436;2023-09-18T02:29:59;100559.91;;;18.70;100.00
18985;BME280;9626;52.552;13.436;2023-09-18T02:32:25;100558.16;;;18.69;100.00
18985;BME280;9626;52.552;13.436;2023-09-18T02:34:51;100554.53;;;18.70;100.00
18985;BME280;9626;52.552;13.436;2023-09-18T02:37:17;100553.41;;;18.74;100.00
18985;BME280;9626;52.552;13.436;2023-09-18T02:39:43;100550.81;;;18.72;100.00
18985;BME280;9626;52.552;13.436;2023-09-18T02:42:09;100553.69;;;18.69;100.00
18985;BME280;9626;52.552;13.436;2023-09-18T02:44:35;100551.16;;;18.66;100.00
18985;BME280;9626;52.552;13.436;2023-09-18T02:47:01;100547.72;;;18.64;100.00
18985;BME280;9626;52.552;13.436;2023-09-18T02:49:27;100543.38;;;18.62;100.00
18985;BME280;9626;52.552;13.436;2023-09-18T02:51:54;100539.91;;;18.59;100.00
18985;BME280;9626;52.552;13.436;2023-09-18T02:54:20;100534.72;;;18.56;100.00
18985;BME280;9626;52.552;13.436;2023-09-18T02:56:46;100532.03;;;18.56;100.00
18985;BME280;9626;52.552;13.436;2023-09-18T02:59:11;100528.59;;;18.54;100.00
18985;BME280;9626;52.552;13.436;2023-09-18T03:01:37;100532.97;;;18.55;100.00
18985;BME280;9626;52.552;13.436;2023-09-18T03:04:04;100538.59;;;18.51;100.00
18985;BME280;9626;52.552;13.436;2023-09-18T03:06:30;100529.88;;;18.47;100.00
18985;BME280;9626;52.552;13.436;2023-09-18T03:08:56;100526.59;;;18.42;100.00
18985;BME280;9626;52.552;13.436;2023-09-18T03:11:22;100525.63;;;18.43;100.00
18985;BME280;9626;52.552;13.436;2023-09-18T03:13:52;100515.25;;;18.37;100.00
18985;BME280;9626;52.552;13.436;2023-09-18T03:16:18;100513.78;;;18.31;100.00
18985;BME280;9626;52.552;13.436;2023-09-18T03:18:44;100513.78;;;18.31;100.00
18985;BME280;9626;52.552;13.436;2023-09-18T03:21:10;100505.97;;;18.27;100.00
18985;BME280;9626;52.552;13.436;2023-09-18T03:23:36;100517.22;;;18.33;100.00
18985;BME280;9626;52.552;13.436;2023-09-18T03:26:02;100507.44;;;18.32;100.00
18985;BME280;9626;52.552;13.436;2023-09-18T03:28:28;100510.41;;;18.28;100.00
18985;BME280;9626;52.552;13.436;2023-09-18T03:30:55;100513.16;;;18.26;100.00
18985;BME280;9626;52.552;13.436;2023-09-18T03:33:21;100513.06;;;18.28;100.00
18985;BME280;9626;52.552;13.436;2023-09-18T03:38:13;100506.47;;;18.17;100.00
18985;BME280;9626;52.552;13.436;2023-09-18T03:40:40;100509.94;;;18.19;100.00
18985;BME280;9626;52.552;13.436;2023-09-18T03:43:07;100502.84;;;18.18;100.00
18985;BME280;9626;52.552;13.436;2023-09-18T03:45:33;100500.25;;;18.17;100.00
18985;BME280;9626;52.552;13.436;2023-09-18T03:47:59;100502.00;;;18.18;100.00
18985;BME280;9626;52.552;13.436;2023-09-18T03:50:25;100508.22;;;18.18;100.00
18985;BME280;9626;52.552;13.436;2023-09-18T03:52:52;100493.16;;;18.16;100.00
18985;BME280;9626;52.552;13.436;2023-09-18T03:55:19;100497.66;;;18.15;100.00
18985;BME280;9626;52.552;13.436;2023-09-18T03:57:46;100498.78;;;18.11;100.00
18985;BME280;9626;52.552;13.436;2023-09-18T04:00:14;100492.81;;;18.06;100.00
18985;BME280;9626;52.552;13.436;2023-09-18T04:02:41;100486.59;;;18.05;100.00
18985;BME280;9626;52.552;13.436;2023-09-18T04:05:07;100487.63;;;18.03;100.00
18985;BME280;9626;52.552;13.436;2023-09-18T04:07:33;100487.94;;;17.97;100.00
18985;BME280;9626;52.552;13.436;2023-09-18T04:09:59;100488.81;;;17.97;100.00
18985;BME280;9626;52.552;13.436;2023-09-18T04:12:25;100477.22;;;17.97;100.00
18985;BME280;9626;52.552;13.436;2023-09-18T04:14:52;100484.22;;;17.99;100.00
18985;BME280;9626;52.552;13.436;2023-09-18T04:17:18;100479.66;;;18.01;100.00
18985;BME280;9626;52.552;13.436;2023-09-18T04:19:47;100480.88;;;17.96;100.00
18985;BME280;9626;52.552;13.436;2023-09-18T04:22:15;100476.38;;;17.96;100.00
18985;BME280;9626;52.552;13.436;2023-09-18T04:24:41;100471.09;;;17.95;100.00
18985;BME280;9626;52.552;13.436;2023-09-18T04:27:07;100459.72;;;17.89;100.00
18985;BME280;9626;52.552;13.436;2023-09-18T04:29:33;100464.09;;;17.92;100.00
18985;BME280;9626;52.552;13.436;2023-09-18T04:31:59;100462.03;;;17.97;100.00
18985;BME280;9626;52.552;13.436;2023-09-18T04:34:27;100462.31;;;17.91;100.00
18985;BME280;9626;52.552;13.436;2023-09-18T04:36:53;100457.88;;;17.92;100.00
18985;BME280;9626;52.552;13.436;2023-09-18T04:39:19;100458.00;;;17.88;100.00
18985;BME280;9626;52.552;13.436;2023-09-18T04:41:45;100456.91;;;17.93;100.00
18985;BME280;9626;52.552;13.436;2023-09-18T04:44:13;100453.28;;;17.94;100.00
18985;BME280;9626;52.552;13.436;2023-09-18T04:46:40;100457.91;;;17.90;100.00
18985;BME280;9626;52.552;13.436;2023-09-18T04:49:08;100458.88;;;17.89;100.00
18985;BME280;9626;52.552;13.436;2023-09-18T04:51:37;100454.47;;;17.88;100.00
18985;BME280;9626;52.552;13.436;2023-09-18T04:54:05;100450.94;;;17.87;100.00
18985;BME280;9626;52.552;13.436;2023-09-18T04:56:31;100451.69;;;17.89;100.00
18985;BME280;9626;52.552;13.436;2023-09-18T04:58:57;100447.28;;;17.88;100.00
18985;BME280;9626;52.552;13.436;2023-09-18T05:01:25;100450.75;;;17.90;100.00
18985;BME280;9626;52.552;13.436;2023-09-18T05:03:52;100450.75;;;17.90;100.00
18985;BME280;9626;52.552;13.436;2023-09-18T05:06:18;100449.94;;;17.88;100.00
18985;BME280;9626;52.552;13.436;2023-09-18T05:08:44;100448.06;;;17.90;100.00
18985;BME280;9626;52.552;13.436;2023-09-18T05:11:10;100443.44;;;17.94;100.00
18985;BME280;9626;52.552;13.436;2023-09-18T05:13:36;100442.41;;;17.97;100.00
18985;BME280;9626;52.552;13.436;2023-09-18T05:16:02;100443.50;;;17.93;100.00
18985;BME280;9626;52.552;13.436;2023-09-18T05:18:29;100441.81;;;17.92;100.00
18985;BME280;9626;52.552;13.436;2023-09-18T05:20:55;100435.41;;;17.94;100.00
18985;BME280;9626;52.552;13.436;2023-09-18T05:23:21;100435.25;;;17.97;100.00
18985;BME280;9626;52.552;13.436;2023-09-18T05:25:47;100438.00;;;17.96;100.00
18985;BME280;9626;52.552;13.436;2023-09-18T05:28:13;100439.03;;;17.93;100.00
18985;BME280;9626;52.552;13.436;2023-09-18T05:30:39;100429.28;;;17.92;100.00
18985;BME280;9626;52.552;13.436;2023-09-18T05:33:07;100427.31;;;17.96;100.00
18985;BME280;9626;52.552;13.436;2023-09-18T05:35:35;100427.13;;;17.99;100.00
18985;BME280;9626;52.552;13.436;2023-09-18T05:38:05;100423.50;;;18.00;100.00
18985;BME280;9626;52.552;13.436;2023-09-18T05:40:32;100419.72;;;18.04;100.00
18985;BME280;9626;52.552;13.436;2023-09-18T05:42:58;100432.13;;;18.05;100.00
18985;BME280;9626;52.552;13.436;2023-09-18T05:45:24;100418.41;;;18.11;100.00
18985;BME280;9626;52.552;13.436;2023-09-18T05:47:52;100418.16;;;18.16;100.00
18985;BME280;9626;52.552;13.436;2023-09-18T05:50:19;100417.81;;;18.22;100.00
18985;BME280;9626;52.552;13.436;2023-09-18T05:52:47;100411.25;;;18.28;100.00
18985;BME280;9626;52.552;13.436;2023-09-18T05:55:14;100404.56;;;18.35;100.00
18985;BME280;9626;52.552;13.436;2023-09-18T05:57:41;100405.38;;;18.37;100.00
18985;BME280;9626;52.552;13.436;2023-09-18T06:00:08;100402.16;;;18.46;100.00
18985;BME280;9626;52.552;13.436;2023-09-18T06:02:34;100393.75;;;18.52;100.00
18985;BME280;9626;52.552;13.436;2023-09-18T06:05:01;100389.75;;;18.59;100.00
18985;BME280;9626;52.552;13.436;2023-09-18T06:07:29;100387.34;;;18.71;100.00
18985;BME280;9626;52.552;13.436;2023-09-18T06:09:56;100389.06;;;18.72;100.00
18985;BME280;9626;52.552;13.436;2023-09-18T06:12:23;100380.56;;;18.80;100.00
18985;BME280;9626;52.552;13.436;2023-09-18T06:14:49;100379.31;;;18.85;100.00
18985;BME280;9626;52.552;13.436;2023-09-18T06:17:15;100377.09;;;18.94;100.00
18985;BME280;9626;52.552;13.436;2023-09-18T06:19:43;100376.94;;;18.97;100.00
18985;BME280;9626;52.552;13.436;2023-09-18T06:22:09;100368.09;;;18.95;100.00
18985;BME280;9626;52.552;13.436;2023-09-18T06:24:36;100371.06;;;18.90;100.00
18985;BME280;9626;52.552;13.436;2023-09-18T06:27:02;100364.47;;;18.96;100.00
18985;BME280;9626;52.552;13.436;2023-09-18T06:29:33;100363.41;;;18.98;100.00
18985;BME280;9626;52.552;13.436;2023-09-18T06:32:00;100369.63;;;18.99;100.00
18985;BME280;9626;52.552;13.436;2023-09-18T06:34:26;100358.56;;;19.05;100.00
18985;BME280;9626;52.552;13.436;2023-09-18T06:36:54;100366.50;;;19.06;100.00
18985;BME280;9626;52.552;13.436;2023-09-18T06:39:20;100359.31;;;19.07;100.00
18985;BME280;9626;52.552;13.436;2023-09-18T06:41:48;100353.69;;;19.12;100.00
18985;BME280;9626;52.552;13.436;2023-09-18T06:44:14;100354.16;;;19.18;100.00
18985;BME280;9626;52.552;13.436;2023-09-18T06:46:40;100353.78;;;19.24;100.00
18985;BME280;9626;52.552;13.436;2023-09-18T06:49:06;100354.28;;;19.31;100.00
18985;BME280;9626;52.552;13.436;2023-09-18T06:51:32;100335.97;;;19.38;100.00
18985;BME280;9626;52.552;13.436;2023-09-18T06:53:58;100330.88;;;19.48;100.00
18985;BME280;9626;52.552;13.436;2023-09-18T06:56:25;100331.16;;;19.57;100.00
18985;BME280;9626;52.552;13.436;2023-09-18T06:58:51;100334.22;;;19.66;100.00
18985;BME280;9626;52.552;13.436;2023-09-18T07:01:18;100330.94;;;19.75;100.00
18985;BME280;9626;52.552;13.436;2023-09-18T07:03:46;100327.09;;;19.79;100.00
18985;BME280;9626;52.552;13.436;2023-09-18T07:06:14;100326.75;;;19.85;100.00
18985;BME280;9626;52.552;13.436;2023-09-18T07:08:44;100331.81;;;19.90;100.00
18985;BME280;9626;52.552;13.436;2023-09-18T07:11:10;100316.19;;;19.97;100.00
18985;BME280;9626;52.552;13.436;2023-09-18T07:13:38;100320.19;;;20.04;100.00
18985;BME280;9626;52.552;13.436;2023-09-18T07:16:05;100312.47;;;20.12;100.00
18985;BME280;9626;52.552;13.436;2023-09-18T07:18:32;100312.09;;;20.18;100.00
18985;BME280;9626;52.552;13.436;2023-09-18T07:20:58;100299.75;;;20.29;100.00
18985;BME280;9626;52.552;13.436;2023-09-18T07:23:25;100293.88;;;20.36;100.00
18985;BME280;9626;52.552;13.436;2023-09-18T07:25:51;100294.78;;;20.50;100.00
18985;BME280;9626;52.552;13.436;2023-09-18T07:28:17;100288.34;;;20.65;100.00
18985;BME280;9626;52.552;13.436;2023-09-18T07:30:45;100290.13;;;20.92;100.00
18985;BME280;9626;52.552;13.436;2023-09-18T07:33:12;100294.75;;;21.16;100.00
18985;BME280;9626;52.552;13.436;2023-09-18T07:35:38;100300.25;;;21.40;100.00
18985;BME280;9626;52.552;13.436;2023-09-18T07:38:04;100295.94;;;21.63;100.00
18985;BME280;9626;52.552;13.436;2023-09-18T07:40:30;100289.22;;;21.82;100.00
18985;BME280;9626;52.552;13.436;2023-09-18T07:42:56;100293.13;;;22.02;100.00
18985;BME280;9626;52.552;13.436;2023-09-18T07:45:25;100287.81;;;22.13;100.00
18985;BME280;9626;52.552;13.436;2023-09-18T07:47:52;100284.88;;;22.16;100.00
18985;BME280;9626;52.552;13.436;2023-09-18T07:50:18;100287.56;;;22.16;100.00
18985;BME280;9626;52.552;13.436;2023-09-18T07:52:44;100282.22;;;22.27;100.00
18985;BME280;9626;52.552;13.436;2023-09-18T07:55:10;100288.81;;;22.23;100.00
18985;BME280;9626;52.552;13.436;2023-09-18T07:57:36;100287.47;;;22.42;100.00
18985;BME280;9626;52.552;13.436;2023-09-18T08:00:04;100294.91;;;22.62;100.00
18985;BME280;9626;52.552;13.436;2023-09-18T08:02:37;100291.25;;;22.64;100.00
18985;BME280;9626;52.552;13.436;2023-09-18T08:05:05;100291.00;;;22.67;100.00
18985;BME280;9626;52.552;13.436;2023-09-18T08:07:31;100284.38;;;22.59;100.00
18985;BME280;9626;52.552;13.436;2023-09-18T08:09:57;100289.50;;;22.62;100.00
18985;BME280;9626;52.552;13.436;2023-09-18T08:12:24;100281.66;;;22.59;100.00
18985;BME280;9626;52.552;13.436;2023-09-18T08:14:50;100284.13;;;22.62;100.00
18985;BME280;9626;52.552;13.436;2023-09-18T08:17:16;100274.03;;;22.53;100.00
18985;BME280;9626;52.552;13.436;2023-09-18T08:19:43;100266.09;;;22.63;100.00
18985;BME280;9626;52.552;13.436;2023-09-18T08:22:10;100257.78;;;22.66;100.00
18985;BME280;9626;52.552;13.436;2023-09-18T08:24:41;100266.22;;;22.61;100.00
18985;BME280;9626;52.552;13.436;2023-09-18T08:27:07;100254.47;;;22.74;100.00
18985;BME280;9626;52.552;13.436;2023-09-18T08:29:33;100257.69;;;22.90;100.00
18985;BME280;9626;52.552;13.436;2023-09-18T08:31:59;100253.53;;;22.98;100.00
18985;BME280;9626;52.552;13.436;2023-09-18T08:34:25;100248.63;;;23.03;100.00
18985;BME280;9626;52.552;13.436;2023-09-18T08:36:52;100255.03;;;23.02;100.00
18985;BME280;9626;52.552;13.436;2023-09-18T08:39:18;100246.19;;;23.11;100.00
18985;BME280;9626;52.552;13.436;2023-09-18T08:41:49;100259.22;;;23.17;100.00
18985;BME280;9626;52.552;13.436;2023-09-18T08:44:17;100252.59;;;23.21;100.00
18985;BME280;9626;52.552;13.436;2023-09-18T08:46:43;100257.00;;;23.34;99.93
18985;BME280;9626;52.552;13.436;2023-09-18T08:49:11;100253.72;;;23.41;98.76
18985;BME280;9626;52.552;13.436;2023-09-18T08:51:42;100250.50;;;23.36;97.16
18985;BME280;9626;52.552;13.436;2023-09-18T08:54:08;100254.28;;;23.45;97.56
18985;BME280;9626;52.552;13.436;2023-09-18T08:56:35;100249.41;;;23.61;95.98
18985;BME280;9626;52.552;13.436;2023-09-18T08:59:01;100246.41;;;23.76;92.72
18985;BME280;9626;52.552;13.436;2023-09-18T09:01:27;100237.78;;;23.93;92.39
18985;BME280;9626;52.552;13.436;2023-09-18T09:03:54;100229.91;;;24.02;89.44
18985;BME280;9626;52.552;13.436;2023-09-18T09:06:21;100227.75;;;24.17;89.17
18985;BME280;9626;52.552;13.436;2023-09-18T09:08:47;100214.09;;;24.18;88.37
18985;BME280;9626;52.552;13.436;2023-09-18T09:11:13;100219.50;;;24.18;88.34
18985;BME280;9626;52.552;13.436;2023-09-18T09:13:39;100207.38;;;24.34;87.59
18985;BME280;9626;52.552;13.436;2023-09-18T09:16:05;100211.31;;;24.41;85.24
18985;BME280;9626;52.552;13.436;2023-09-18T09:18:31;100207.19;;;24.46;84.32
18985;BME280;9626;52.552;13.436;2023-09-18T09:20:59;100205.47;;;24.45;84.74
18985;BME280;9626;52.552;13.436;2023-09-18T09:23:27;100191.25;;;24.43;85.32
18985;BME280;9626;52.552;13.436;2023-09-18T09:25:54;100187.41;;;24.46;84.69
18985;BME280;9626;52.552;13.436;2023-09-18T09:28:30;100184.63;;;24.57;84.20
18985;BME280;9626;52.552;13.436;2023-09-18T09:31:01;100183.41;;;24.61;82.74
18985;BME280;9626;52.552;13.436;2023-09-18T09:33:30;100185.88;;;24.53;82.89
18985;BME280;9626;52.552;13.436;2023-09-18T09:35:56;100181.47;;;24.52;82.80
18985;BME280;9626;52.552;13.436;2023-09-18T09:38:30;100165.97;;;24.54;82.98
18985;BME280;9626;52.552;13.436;2023-09-18T09:41:04;100162.72;;;24.60;81.24
18985;BME280;9626;52.552;13.436;2023-09-18T09:43:35;100161.38;;;24.76;79.06
18985;BME280;9626;52.552;13.436;2023-09-18T09:46:02;100154.47;;;24.83;78.39
18985;BME280;9626;52.552;13.436;2023-09-18T09:48:28;100153.69;;;24.71;80.47
18985;BME280;9626;52.552;13.436;2023-09-18T09:51:00;100149.25;;;24.70;79.35
18985;BME280;9626;52.552;13.436;2023-09-18T09:53:43;100154.72;;;24.80;77.58
18985;BME280;9626;52.552;13.436;2023-09-18T09:56:14;100155.31;;;24.84;75.59
18985;BME280;9626;52.552;13.436;2023-09-18T09:59:00;100174.69;;;24.79;76.01
18985;BME280;9626;52.552;13.436;2023-09-18T10:01:26;100171.22;;;24.77;76.12
18985;BME280;9626;52.552;13.436;2023-09-18T10:03:54;100167.09;;;24.73;75.33
18985;BME280;9626;52.552;13.436;2023-09-18T10:06:21;100160.97;;;24.71;76.34
18985;BME280;9626;52.552;13.436;2023-09-18T10:08:48;100156.56;;;24.79;75.94
18985;BME280;9626;52.552;13.436;2023-09-18T10:11:15;100160.69;;;24.74;77.63
18985;BME280;9626;52.552;13.436;2023-09-18T10:14:06;100150.31;;;24.58;78.42
18985;BME280;9626;52.552;13.436;2023-09-18T10:16:35;100140.13;;;24.61;79.13
18985;BME280;9626;52.552;13.436;2023-09-18T10:19:21;100134.69;;;24.61;79.59
18985;BME280;9626;52.552;13.436;2023-09-18T10:24:40;100141.84;;;24.62;79.62
18985;BME280;9626;52.552;13.436;2023-09-18T10:27:08;100144.44;;;24.74;80.26
18985;BME280;9626;52.552;13.436;2023-09-18T10:29:36;100137.59;;;24.70;79.16
18985;BME280;9626;52.552;13.436;2023-09-18T10:32:03;100134.69;;;24.61;79.75
18985;BME280;9626;52.552;13.436;2023-09-18T10:34:36;100139.19;;;24.61;79.89
18985;BME280;9626;52.552;13.436;2023-09-18T10:37:03;100156.06;;;24.64;79.88
18985;BME280;9626;52.552;13.436;2023-09-18T10:39:38;100154.72;;;24.80;79.70
18985;BME280;9626;52.552;13.436;2023-09-18T10:42:10;100151.38;;;24.97;77.50
18985;BME280;9626;52.552;13.436;2023-09-18T10:44:36;100158.50;;;24.98;78.01
18985;BME280;9626;52.552;13.436;2023-09-18T10:47:06;100148.31;;;25.12;78.15
18985;BME280;9626;52.552;13.436;2023-09-18T10:49:34;100164.25;;;25.05;77.46
18985;BME280;9626;52.552;13.436;2023-09-18T10:52:01;100166.22;;;25.03;74.13
18985;BME280;9626;52.552;13.436;2023-09-18T10:54:29;100163.66;;;25.02;74.25
18985;BME280;9626;52.552;13.436;2023-09-18T10:56:58;100162.38;;;25.06;73.77
18985;BME280;9626;52.552;13.436;2023-09-18T10:59:24;100153.41;;;25.05;73.94
18985;BME280;9626;52.552;13.436;2023-09-18T11:01:51;100149.69;;;24.96;73.44
18985;BME280;9626;52.552;13.436;2023-09-18T11:04:20;100143.81;;;24.91;72.65
18985;BME280;9626;52.552;13.436;2023-09-18T11:09:29;100141.91;;;24.82;73.03
18985;BME280;9626;52.552;13.436;2023-09-18T11:23:16;100140.47;;;24.78;76.46
18985;BME280;9626;52.552;13.436;2023-09-18T11:25:43;100162.84;;;24.80;76.84
18985;BME280;9626;52.552;13.436;2023-09-18T11:28:15;100149.31;;;24.80;76.37
18985;BME280;9626;52.552;13.436;2023-09-18T11:30:51;100151.31;;;24.78;76.37
18985;BME280;9626;52.552;13.436;2023-09-18T11:33:42;100152.00;;;24.80;76.88
18985;BME280;9626;52.552;13.436;2023-09-18T11:36:14;100153.28;;;24.76;77.16
18985;BME280;9626;52.552;13.436;2023-09-18T11:38:57;100153.03;;;24.79;77.92
18985;BME280;9626;52.552;13.436;2023-09-18T11:41:25;100161.16;;;24.79;77.98
18985;BME280;9626;52.552;13.436;2023-09-18T11:43:52;100159.13;;;24.81;78.49
18985;BME280;9626;52.552;13.436;2023-09-18T11:46:39;100160.13;;;24.80;79.25
18985;BME280;9626;52.552;13.436;2023-09-18T11:49:13;100155.28;;;24.74;79.67
18985;BME280;9626;52.552;13.436;2023-09-18T11:51:39;100156.41;;;24.71;79.43
18985;BME280;9626;52.552;13.436;2023-09-18T11:54:07;100147.16;;;24.74;80.10
18985;BME280;9626;52.552;13.436;2023-09-18T11:56:33;100149.84;;;24.74;78.97
18985;BME280;9626;52.552;13.436;2023-09-18T11:58:59;100143.00;;;24.70;79.32
18985;BME280;9626;52.552;13.436;2023-09-18T12:01:30;100138.72;;;24.67;79.72
18985;BME280;9626;52.552;13.436;2023-09-18T12:04:00;100145.97;;;24.67;80.40
18985;BME280;9626;52.552;13.436;2023-09-18T12:06:26;100137.88;;;24.67;80.56
18985;BME280;9626;52.552;13.436;2023-09-18T12:08:53;100144.25;;;24.66;83.33
18985;BME280;9626;52.552;13.436;2023-09-18T12:11:20;100133.16;;;24.69;82.09
18985;BME280;9626;52.552;13.436;2023-09-18T12:13:47;100137.59;;;24.70;81.28
18985;BME280;9626;52.552;13.436;2023-09-18T12:16:16;100130.91;;;24.74;82.77
18985;BME280;9626;52.552;13.436;2023-09-18T12:18:46;100135.06;;;24.78;82.25
18985;BME280;9626;52.552;13.436;2023-09-18T12:21:15;100126.84;;;24.89;81.35
18985;BME280;9626;52.552;13.436;2023-09-18T12:23:44;100130.00;;;24.94;80.74
18985;BME280;9626;52.552;13.436;2023-09-18T12:26:12;100126.75;;;25.01;78.47
18985;BME280;9626;52.552;13.436;2023-09-18T12:28:43;100117.22;;;25.06;78.95
18985;BME280;9626;52.552;13.436;2023-09-18T12:31:13;100116.50;;;25.14;78.43
18985;BME280;9626;52.552;13.436;2023-09-18T12:33:41;100112.25;;;25.11;78.23
18985;BME280;9626;52.552;13.436;2023-09-18T12:36:10;100115.53;;;25.15;76.15
18985;BME280;9626;52.552;13.436;2023-09-18T12:38:36;100107.38;;;25.05;76.88
18985;BME280;9626;52.552;13.436;2023-09-18T12:41:04;100113.31;;;24.99;77.13
18985;BME280;9626;52.552;13.436;2023-09-18T12:43:38;100110.06;;;24.95;76.52
18985;BME280;9626;52.552;13.436;2023-09-18T12:46:06;100100.63;;;24.90;76.43
18985;BME280;9626;52.552;13.436;2023-09-18T12:48:37;100093.50;;;24.89;75.75
18985;BME280;9626;52.552;13.436;2023-09-18T12:51:07;100105.47;;;24.86;76.72
18985;BME280;9626;52.552;13.436;2023-09-18T12:53:33;100111.72;;;24.87;76.60
18985;BME280;9626;52.552;13.436;2023-09-18T12:58:33;100110.59;;;24.89;77.42
18985;BME280;9626;52.552;13.436;2023-09-18T13:01:04;100097.47;;;24.85;77.10
18985;BME280;9626;52.552;13.436;2023-09-18T13:03:40;100093.63;;;24.77;77.40
18985;BME280;9626;52.552;13.436;2023-09-18T13:06:11;100116.97;;;24.78;77.06